METAR Data
IDs: Format: Raw Decoded Include TAF

Data at: 0837 UTC 20 Sep 2018

KENL 200815Z AUTO 16005KT 10SM CLR 24/23 A2998 RMK AO2 T02380231
KENL 200755Z AUTO 00000KT 10SM CLR 24/23 A2997 RMK AO2 T02380232
KENL 200735Z AUTO 00000KT 10SM CLR 24/24 A2997 RMK AO2 T02400235
KENL 200715Z AUTO 17004KT 10SM CLR 24/24 A2997 RMK AO2 T02380236
KENL 200655Z AUTO 00000KT 7SM CLR 23/23 A2997 RMK AO2 T02280228
KENL 200635Z AUTO 00000KT 7SM CLR 23/23 A2997 RMK AO2 T02260226
KENL 200615Z AUTO 00000KT 7SM CLR 23/23 A2997 RMK AO2 T02270227
KENL 200555Z AUTO 00000KT 7SM CLR 23/23 A2997 RMK AO2 T02280228 10276 20226 403210199
KENL 200535Z AUTO 00000KT 7SM CLR 23/23 A2996 RMK AO2 T02290229
KENL 200515Z AUTO 00000KT 10SM CLR 23/23 A2996 RMK AO2 T02290229
KENL 200455Z AUTO 00000KT 10SM CLR 23/23 A2996 RMK AO2 T02300230
KENL 200435Z AUTO 00000KT 10SM CLR 24/23 A2997 RMK AO2 T02350233
KENL 200415Z AUTO 00000KT 10SM CLR 24/24 A2997 RMK AO2 T02420240
KENL 200355Z AUTO 00000KT 10SM CLR 25/24 A2997 RMK AO2 T02450240
KENL 200335Z AUTO 15004KT 10SM CLR 24/24 A2997 RMK AO2 T02380238
KENL 200315Z AUTO 14004KT 10SM CLR 23/23 A2998 RMK AO2 T02320232
KENL 200255Z AUTO 00000KT 10SM CLR 23/23 A2998 RMK AO2 T02330233
KENL 200235Z AUTO 00000KT 10SM CLR 23/23 A2998 RMK AO2 T02330233
KENL 200215Z AUTO 00000KT 10SM CLR 23/23 A2997 RMK AO2 T02340232
KENL 200155Z AUTO 00000KT 10SM CLR 24/24 A2997 RMK AO2 T02390237
KENL 200135Z AUTO 00000KT 10SM CLR 24/24 A2996 RMK AO2 T02430239
KENL 200115Z AUTO 00000KT 10SM CLR 25/24 A2996 RMK AO2 T02510241
KENL 200055Z AUTO 00000KT 10SM CLR 26/24 A2996 RMK AO2 T02590242
KENL 200035Z AUTO 09003KT 10SM CLR 26/25 A2996 RMK AO2 T02620245
KENL 200015Z AUTO 00000KT 10SM CLR 27/25 A2996 RMK AO2 T02700245
KENL 192355Z AUTO 00000KT 10SM CLR 28/25 A2995 RMK AO2 T02780245 10321 20278
KENL 192335Z AUTO 14004KT 10SM CLR 28/25 A2995 RMK AO2 T02810246
KENL 192315Z AUTO 16004KT 10SM CLR 29/25 A2995 RMK AO2 T02900247
KENL 192255Z AUTO 15004KT 10SM CLR 29/24 A2995 RMK AO2 T02900241
KENL 192235Z AUTO 15004KT 10SM CLR 30/24 A2995 RMK AO2 T02950242
KENL 192215Z AUTO 16003KT 10SM CLR 30/24 A2995 RMK AO2 T02960239
KENL 192155Z AUTO 17005KT 10SM CLR 30/24 A2995 RMK AO2 T02960242
KENL 192130Z AUTO 00000KT 10SM CLR 30/24 A2995 RMK AO2 T02970241
KENL 192115Z AUTO 19005KT 10SM CLR 30/24 A2995 RMK AO2 T03020238
KENL 192055Z AUTO 19004KT 10SM CLR 32/24 A2994 RMK AO2 T03200238
KENL 192035Z AUTO 22006KT 10SM CLR 32/24 A2995 RMK AO2 T03170236
KENL 192015Z AUTO 21004KT 10SM CLR 31/23 A2996 RMK AO2 T03140234
KENL 191955Z AUTO 00000KT 10SM CLR 31/23 A2996 RMK AO2 T03100233
KENL 191935Z AUTO 21004KT 10SM CLR 31/24 A2997 RMK AO2 T03090239
KENL 191915Z AUTO 21004KT 10SM CLR 30/24 A2998 RMK AO2 T03000239
KENL 191855Z AUTO 21006KT 10SM SCT110 29/25 A2999 RMK AO2 T02910245
KENL 191835Z AUTO 19008KT 10SM BKN110 29/25 A3000 RMK AO2 T02860245
KENL 191815Z AUTO 22004KT 10SM SCT070 BKN110 28/25 A3000 RMK AO2 T02820246
KENL 191755Z AUTO 00000KT 10SM -RA SCT080 BKN100 OVC120 28/24 A3000 RMK AO2 T02800242 10312 20206
KENL 191735Z AUTO 00000KT 10SM SCT039 SCT055 OVC100 28/24 A3001 RMK AO2 T02770237
KENL 191715Z AUTO 29003KT 10SM -RA SCT036 SCT042 OVC100 28/24 A3001 RMK AO2 T02770239
KENL 191650Z AUTO 30006KT 10SM SCT049 BKN070 OVC100 29/24 A3001 RMK AO2 T02850238
KENL 191635Z AUTO 25005KT 10SM -RA SCT049 BKN070 OVC100 29/23 A3002 RMK AO2 T02850233
KENL 191615Z AUTO 21005KT 10SM SCT065 BKN110 31/23 A3001 RMK AO2 T03070232
KENL 191555Z AUTO 24005KT 10SM SCT050 SCT065 30/23 A3002 RMK AO2 T03030231
KENL 191535Z AUTO 20004KT 10SM SCT065 31/23 A3002 RMK AO2 T03060232
KENL 191515Z AUTO 18005KT 10SM CLR 30/23 A3000 RMK AO2 T03030232
KENL 191455Z AUTO 19007KT 10SM SCT120 29/23 A2999 RMK AO2 T02940234
KENL 191435Z AUTO 20005KT 10SM OVC120 29/24 A2999 RMK AO2 T02920238
KENL 191415Z AUTO 00000KT 10SM BKN120 27/24 A2999 RMK AO2 T02710235
KENL 191355Z AUTO 23003KT 10SM CLR 26/24 A2999 RMK AO2 T02630237
KENL 191335Z AUTO 00000KT 10SM CLR 25/24 A2999 RMK AO2 T02500237
KENL 191315Z AUTO 25003KT 10SM CLR 24/23 A2998 RMK AO2 T02420231
KENL 191255Z AUTO 19003KT 10SM CLR 23/23 A2998 RMK AO2 T02330229
KENL 191235Z AUTO 00000KT 7SM SCT055 23/23 A2998 RMK AO2 T02260225
KENL 191215Z AUTO 24003KT 7SM BKN060 BKN070 22/22 A2998 RMK AO2 T02190219
KENL 191155Z AUTO 26008KT 7SM SCT060 SCT070 20/20 A2998 RMK AO2 T02040204 10215 20199
KENL 191135Z AUTO 15003KT 7SM CLR 20/20 A2996 RMK AO2 T02010201
KENL 191115Z AUTO 00000KT 7SM CLR 20/20 A2996 RMK AO2 T02030203
KENL 191055Z AUTO 00000KT 7SM CLR 20/20 A2996 RMK AO2 T02020202
KENL 191035Z AUTO 00000KT 7SM CLR 20/20 A2996 RMK AO2 T02010201
KENL 191015Z AUTO 00000KT 7SM CLR 21/21 A2995 RMK AO2 T02050205
KENL 190955Z AUTO 00000KT 7SM CLR 20/20 A2995 RMK AO2 T02000200
KENL 190935Z AUTO 00000KT 7SM CLR 20/20 A2995 RMK AO2 T02020202
KENL 190915Z AUTO 00000KT 10SM CLR 20/20 A2994 RMK AO2 T02030203
KENL 190855Z AUTO 00000KT 10SM CLR 21/21 A2994 RMK AO2 T02050205
KENL 190835Z AUTO 00000KT 10SM CLR 21/21 A2993 RMK AO2 T02050205
KENL 190815Z AUTO 00000KT 10SM CLR 21/21 A2994 RMK AO2 T02070207
KENL 190755Z AUTO 00000KT 10SM CLR 20/20 A2994 RMK AO2 T02010201
KENL 190735Z AUTO 00000KT 10SM CLR 21/21 A2993 RMK AO2 T02050205
KENL 190715Z AUTO 00000KT 10SM CLR 21/21 A2992 RMK AO2 T02050205
KENL 190700Z AUTO 00000KT 10SM CLR 21/21 A2993 RMK AO2 T02060206
KENL 190635Z AUTO 00000KT 10SM CLR 21/21 A2993 RMK AO2 T02120211
KENL 190615Z AUTO 00000KT 10SM CLR 22/21 A2993 RMK AO2 T02150211
KENL 190555Z AUTO 00000KT 10SM CLR 21/21 A2992 RMK AO2 T02140211 10272 20212 403380200
KENL 190535Z AUTO 00000KT 10SM CLR 21/21 A2992 RMK AO2 T02120210
KENL 190515Z AUTO 00000KT 10SM CLR 23/21 A2991 RMK AO2 T02250214
KENL 190455Z AUTO 19003KT 10SM CLR 23/22 A2992 RMK AO2 T02250216
KENL 190435Z AUTO 00000KT 10SM CLR 22/21 A2992 RMK AO2 T02210212
KENL 190415Z AUTO 00000KT 10SM CLR 22/22 A2992 RMK AO2 T02230216
KENL 190355Z AUTO 00000KT 10SM CLR 22/22 A2992 RMK AO2 T02190215
KENL 190335Z AUTO 00000KT 10SM CLR 22/21 A2992 RMK AO2 T02200213
KENL 190315Z AUTO 00000KT 10SM CLR 22/22 A2992 RMK AO2 T02230218
KENL 190255Z AUTO 00000KT 10SM CLR 22/22 A2994 RMK AO2 T02210218
KENL 190235Z AUTO 00000KT 10SM CLR 22/22 A2994 RMK AO2 T02240218
KENL 190215Z AUTO 00000KT 10SM CLR 23/22 A2994 RMK AO2 T02250220
KENL 190155Z AUTO 00000KT 10SM CLR 23/22 A2993 RMK AO2 T02310221
KENL 190135Z AUTO 00000KT 10SM CLR 24/23 A2992 RMK AO2 T02380225
KENL 190115Z AUTO 00000KT 10SM CLR 24/23 A2992 RMK AO2 T02410226
KENL 190055Z AUTO 00000KT 10SM CLR 25/23 A2992 RMK AO2 T02470225
KENL 190035Z AUTO 00000KT 10SM CLR 26/23 A2991 RMK AO2 T02550228
KENL 190015Z AUTO 10004KT 10SM SCT070 26/23 A2991 RMK AO2 T02640230
KENL 182355Z AUTO 17004KT 10SM SCT070 27/23 A2991 RMK AO2 T02730225 10338 20273
KENL 182335Z AUTO 20005KT 10SM CLR 29/23 A2990 RMK AO2 T02860225
KENL 182315Z AUTO 20006KT 10SM CLR 30/23 A2990 RMK AO2 T02980225
KENL 182255Z AUTO 21007KT 10SM SCT065 30/22 A2990 RMK AO2 T03000221
KENL 182235Z AUTO 20007KT 10SM SCT055 30/22 A2990 RMK AO2 T03000220
KENL 182215Z AUTO 21007KT 10SM SCT055 31/22 A2990 RMK AO2 T03130221
KENL 182155Z AUTO 21008KT 10SM SCT055 SCT065 SCT085 33/23 A2990 RMK AO2 T03260225
KENL 182135Z AUTO 23005KT 10SM SCT055 SCT070 33/22 A2990 RMK AO2 T03300220
KENL 182115Z AUTO 24006KT 10SM SCT055 BKN070 BKN080 32/22 A2991 RMK AO2 T03220215
KENL 182055Z AUTO 22006KT 10SM SCT055 33/22 A2991 RMK AO2 T03270218